Bloomingdale, New York
Current Conditions -  °F | °C
As of 7:51 PM on Friday 31 Oct 2014 (Local Time) from KSLK Reporting Station
Overcast Overcast  
Wind Chill: -1°   Ceiling: 5500
Heat Index:   Visibility: 10mi
Dew Point: -2°   Wind: 10mph
Humidity: 70%   Direction: 50°NE
Pressure: 29.99"   Gusts: NA
Location:  44.41°N, 74.09°W
Report Text: KSLK 312351Z AUTO 05009KT 10SM SCT043 BKN055 OVC070 03/M02 A2999 RMK AO2 SLP172 T00281022 10078 20028 53012 $
Loading
Personal Weather Stations






























Interactive Weather Map
Tropical Storm Tracking
New forecast layout! Learn more

10-Day Weather Forecast

Advertisements
Track Severe Weather on mobile